sensor_id;sensor_type;location;lat;lon;timestamp;P1;durP1;ratioP1;P2;durP2;ratioP2
10142;SDS011;5112;54.088;13.446;2022-08-18T00:06:27;12.03;;;11.10;;
10142;SDS011;5112;54.088;13.446;2022-08-18T00:16:30;13.47;;;12.43;;
10142;SDS011;5112;54.088;13.446;2022-08-18T00:26:32;12.73;;;11.73;;
10142;SDS011;5112;54.088;13.446;2022-08-18T00:36:35;13.03;;;11.93;;
10142;SDS011;5112;54.088;13.446;2022-08-18T00:46:36;12.63;;;11.53;;
10142;SDS011;5112;54.088;13.446;2022-08-18T00:56:41;12.67;;;11.57;;
10142;SDS011;5112;54.088;13.446;2022-08-18T01:06:47;13.27;;;12.13;;
10142;SDS011;5112;54.088;13.446;2022-08-18T01:16:54;11.93;;;10.93;;
10142;SDS011;5112;54.088;13.446;2022-08-18T01:27:15;12.27;;;11.37;;
10142;SDS011;5112;54.088;13.446;2022-08-18T01:37:19;11.90;;;10.90;;
10142;SDS011;5112;54.088;13.446;2022-08-18T01:47:24;11.77;;;10.83;;
10142;SDS011;5112;54.088;13.446;2022-08-18T01:57:27;13.73;;;12.53;;
10142;SDS011;5112;54.088;13.446;2022-08-18T02:07:30;14.03;;;12.90;;
10142;SDS011;5112;54.088;13.446;2022-08-18T02:17:35;12.27;;;11.37;;
10142;SDS011;5112;54.088;13.446;2022-08-18T02:27:39;12.47;;;11.53;;
10142;SDS011;5112;54.088;13.446;2022-08-18T02:37:41;12.38;;;11.48;;
10142;SDS011;5112;54.088;13.446;2022-08-18T02:47:51;11.57;;;10.67;;
10142;SDS011;5112;54.088;13.446;2022-08-18T02:57:54;11.50;;;10.50;;
10142;SDS011;5112;54.088;13.446;2022-08-18T03:07:57;12.30;;;11.40;;
10142;SDS011;5112;54.088;13.446;2022-08-18T03:17:59;11.87;;;10.97;;
10142;SDS011;5112;54.088;13.446;2022-08-18T03:28:03;11.67;;;10.57;;
10142;SDS011;5112;54.088;13.446;2022-08-18T03:38:05;10.77;;;9.97;;
10142;SDS011;5112;54.088;13.446;2022-08-18T03:48:08;10.50;;;9.60;;
10142;SDS011;5112;54.088;13.446;2022-08-18T03:58:10;11.37;;;10.30;;
10142;SDS011;5112;54.088;13.446;2022-08-18T04:08:15;12.87;;;11.87;;
10142;SDS011;5112;54.088;13.446;2022-08-18T04:18:17;12.93;;;11.80;;
10142;SDS011;5112;54.088;13.446;2022-08-18T04:28:20;13.17;;;12.03;;
10142;SDS011;5112;54.088;13.446;2022-08-18T04:38:21;15.83;;;14.43;;
10142;SDS011;5112;54.088;13.446;2022-08-18T04:48:25;15.97;;;14.67;;
10142;SDS011;5112;54.088;13.446;2022-08-18T04:58:26;15.30;;;14.03;;
10142;SDS011;5112;54.088;13.446;2022-08-18T05:08:29;13.73;;;12.73;;
10142;SDS011;5112;54.088;13.446;2022-08-18T05:18:32;11.90;;;10.80;;
10142;SDS011;5112;54.088;13.446;2022-08-18T05:28:39;10.97;;;10.07;;
10142;SDS011;5112;54.088;13.446;2022-08-18T05:38:44;10.57;;;9.63;;
10142;SDS011;5112;54.088;13.446;2022-08-18T05:48:55;9.63;;;8.93;;
10142;SDS011;5112;54.088;13.446;2022-08-18T05:58:57;9.97;;;9.07;;
10142;SDS011;5112;54.088;13.446;2022-08-18T06:09:04;10.57;;;9.67;;
10142;SDS011;5112;54.088;13.446;2022-08-18T06:19:17;11.07;;;10.27;;
10142;SDS011;5112;54.088;13.446;2022-08-18T06:29:34;12.37;;;11.43;;
10142;SDS011;5112;54.088;13.446;2022-08-18T06:39:47;11.93;;;10.97;;
10142;SDS011;5112;54.088;13.446;2022-08-18T06:49:53;13.77;;;12.57;;
10142;SDS011;5112;54.088;13.446;2022-08-18T07:00:04;13.80;;;12.70;;
10142;SDS011;5112;54.088;13.446;2022-08-18T07:20:40;14.20;;;12.90;;
10142;SDS011;5112;54.088;13.446;2022-08-18T07:30:45;12.70;;;11.70;;
10142;SDS011;5112;54.088;13.446;2022-08-18T07:40:48;12.37;;;11.27;;
10142;SDS011;5112;54.088;13.446;2022-08-18T07:50:58;13.60;;;12.30;;
10142;SDS011;5112;54.088;13.446;2022-08-18T08:01:08;11.97;;;10.77;;
10142;SDS011;5112;54.088;13.446;2022-08-18T08:11:22;13.00;;;12.00;;
10142;SDS011;5112;54.088;13.446;2022-08-18T08:21:31;12.40;;;11.47;;
10142;SDS011;5112;54.088;13.446;2022-08-18T08:31:49;12.77;;;11.67;;
10142;SDS011;5112;54.088;13.446;2022-08-18T08:42:04;13.27;;;12.27;;
10142;SDS011;5112;54.088;13.446;2022-08-18T08:52:13;12.53;;;11.47;;
10142;SDS011;5112;54.088;13.446;2022-08-18T09:02:32;13.70;;;12.57;;
10142;SDS011;5112;54.088;13.446;2022-08-18T09:12:48;13.00;;;11.97;;
10142;SDS011;5112;54.088;13.446;2022-08-18T09:23:06;14.17;;;12.97;;
10142;SDS011;5112;54.088;13.446;2022-08-18T09:33:23;14.17;;;12.80;;
10142;SDS011;5112;54.088;13.446;2022-08-18T09:43:35;12.47;;;11.47;;
10142;SDS011;5112;54.088;13.446;2022-08-18T09:53:55;12.67;;;11.67;;
10142;SDS011;5112;54.088;13.446;2022-08-18T10:04:26;13.63;;;12.63;;
10142;SDS011;5112;54.088;13.446;2022-08-18T10:25:08;14.33;;;13.13;;
10142;SDS011;5112;54.088;13.446;2022-08-18T10:45:55;13.93;;;12.77;;
10142;SDS011;5112;54.088;13.446;2022-08-18T10:55:58;14.97;;;13.77;;
10142;SDS011;5112;54.088;13.446;2022-08-18T11:06:04;14.10;;;13.00;;
10142;SDS011;5112;54.088;13.446;2022-08-18T11:16:09;14.93;;;13.63;;
10142;SDS011;5112;54.088;13.446;2022-08-18T11:26:21;14.60;;;13.50;;
10142;SDS011;5112;54.088;13.446;2022-08-18T11:36:28;13.73;;;12.57;;
10142;SDS011;5112;54.088;13.446;2022-08-18T11:46:37;15.00;;;13.77;;
10142;SDS011;5112;54.088;13.446;2022-08-18T11:56:39;13.87;;;12.77;;
10142;SDS011;5112;54.088;13.446;2022-08-18T12:06:51;13.53;;;12.43;;
10142;SDS011;5112;54.088;13.446;2022-08-18T12:16:58;14.53;;;13.23;;
10142;SDS011;5112;54.088;13.446;2022-08-18T12:27:02;14.90;;;13.60;;
10142;SDS011;5112;54.088;13.446;2022-08-18T12:37:06;13.70;;;12.50;;
10142;SDS011;5112;54.088;13.446;2022-08-18T12:47:11;13.00;;;12.00;;
10142;SDS011;5112;54.088;13.446;2022-08-18T12:57:16;14.07;;;12.97;;
10142;SDS011;5112;54.088;13.446;2022-08-18T13:07:23;13.67;;;12.67;;
10142;SDS011;5112;54.088;13.446;2022-08-18T13:17:24;13.20;;;12.30;;
10142;SDS011;5112;54.088;13.446;2022-08-18T13:27:27;12.97;;;12.07;;
10142;SDS011;5112;54.088;13.446;2022-08-18T13:37:29;12.87;;;11.97;;
10142;SDS011;5112;54.088;13.446;2022-08-18T13:47:33;11.47;;;10.60;;
10142;SDS011;5112;54.088;13.446;2022-08-18T13:57:35;12.73;;;11.73;;
10142;SDS011;5112;54.088;13.446;2022-08-18T14:07:39;12.10;;;11.03;;
10142;SDS011;5112;54.088;13.446;2022-08-18T14:17:41;15.60;;;14.40;;
10142;SDS011;5112;54.088;13.446;2022-08-18T14:27:44;14.37;;;13.27;;
10142;SDS011;5112;54.088;13.446;2022-08-18T14:37:46;13.93;;;12.73;;
10142;SDS011;5112;54.088;13.446;2022-08-18T14:47:49;14.37;;;13.07;;
10142;SDS011;5112;54.088;13.446;2022-08-18T14:57:53;14.70;;;13.50;;
10142;SDS011;5112;54.088;13.446;2022-08-18T15:07:56;15.47;;;14.37;;
10142;SDS011;5112;54.088;13.446;2022-08-18T15:17:58;14.17;;;13.07;;
10142;SDS011;5112;54.088;13.446;2022-08-18T15:28:01;13.00;;;11.93;;
10142;SDS011;5112;54.088;13.446;2022-08-18T15:38:05;17.50;;;16.30;;
10142;SDS011;5112;54.088;13.446;2022-08-18T15:48:08;16.90;;;15.60;;
10142;SDS011;5112;54.088;13.446;2022-08-18T15:58:11;16.33;;;14.93;;
10142;SDS011;5112;54.088;13.446;2022-08-18T16:08:15;16.10;;;14.90;;
10142;SDS011;5112;54.088;13.446;2022-08-18T16:18:18;15.53;;;14.23;;
10142;SDS011;5112;54.088;13.446;2022-08-18T16:28:22;15.97;;;14.67;;
10142;SDS011;5112;54.088;13.446;2022-08-18T16:38:23;15.10;;;13.83;;
10142;SDS011;5112;54.088;13.446;2022-08-18T16:48:29;15.00;;;13.90;;
10142;SDS011;5112;54.088;13.446;2022-08-18T16:58:31;16.40;;;13.23;;
10142;SDS011;5112;54.088;13.446;2022-08-18T17:09:06;16.27;;;14.57;;
10142;SDS011;5112;54.088;13.446;2022-08-18T17:19:08;15.83;;;14.50;;
10142;SDS011;5112;54.088;13.446;2022-08-18T17:29:14;13.83;;;12.73;;
10142;SDS011;5112;54.088;13.446;2022-08-18T17:39:21;15.07;;;12.30;;
10142;SDS011;5112;54.088;13.446;2022-08-18T17:49:28;9.47;;;8.57;;
10142;SDS011;5112;54.088;13.446;2022-08-18T17:59:47;8.97;;;8.27;;
10142;SDS011;5112;54.088;13.446;2022-08-18T18:09:56;8.57;;;7.73;;
10142;SDS011;5112;54.088;13.446;2022-08-18T18:20:09;7.87;;;7.33;;
10142;SDS011;5112;54.088;13.446;2022-08-18T18:30:20;8.32;;;7.63;;
10142;SDS011;5112;54.088;13.446;2022-08-18T18:40:26;8.40;;;7.80;;
10142;SDS011;5112;54.088;13.446;2022-08-18T18:50:38;7.82;;;7.18;;
10142;SDS011;5112;54.088;13.446;2022-08-18T19:00:46;7.30;;;6.70;;
10142;SDS011;5112;54.088;13.446;2022-08-18T19:10:54;9.20;;;8.40;;
10142;SDS011;5112;54.088;13.446;2022-08-18T19:21:00;8.60;;;7.80;;
10142;SDS011;5112;54.088;13.446;2022-08-18T19:31:09;7.97;;;7.37;;
10142;SDS011;5112;54.088;13.446;2022-08-18T19:41:15;8.67;;;7.70;;
10142;SDS011;5112;54.088;13.446;2022-08-18T19:51:27;8.63;;;7.83;;
10142;SDS011;5112;54.088;13.446;2022-08-18T20:01:33;8.13;;;7.53;;
10142;SDS011;5112;54.088;13.446;2022-08-18T20:11:48;8.33;;;7.63;;
10142;SDS011;5112;54.088;13.446;2022-08-18T20:22:08;8.20;;;7.60;;
10142;SDS011;5112;54.088;13.446;2022-08-18T20:32:18;8.70;;;7.80;;
10142;SDS011;5112;54.088;13.446;2022-08-18T20:42:41;8.10;;;7.60;;
10142;SDS011;5112;54.088;13.446;2022-08-18T20:52:50;8.90;;;8.20;;
10142;SDS011;5112;54.088;13.446;2022-08-18T21:03:05;8.20;;;7.50;;
10142;SDS011;5112;54.088;13.446;2022-08-18T21:13:09;9.20;;;8.50;;
10142;SDS011;5112;54.088;13.446;2022-08-18T21:23:11;9.23;;;8.43;;
10142;SDS011;5112;54.088;13.446;2022-08-18T21:33:19;9.07;;;8.33;;
10142;SDS011;5112;54.088;13.446;2022-08-18T21:43:32;10.40;;;9.40;;
10142;SDS011;5112;54.088;13.446;2022-08-18T21:53:37;10.27;;;9.37;;
10142;SDS011;5112;54.088;13.446;2022-08-18T22:14:10;9.63;;;8.83;;
10142;SDS011;5112;54.088;13.446;2022-08-18T22:24:20;10.10;;;9.20;;
10142;SDS011;5112;54.088;13.446;2022-08-18T22:34:29;10.40;;;9.40;;
10142;SDS011;5112;54.088;13.446;2022-08-18T22:44:33;10.40;;;9.50;;
10142;SDS011;5112;54.088;13.446;2022-08-18T22:54:36;10.60;;;9.80;;
10142;SDS011;5112;54.088;13.446;2022-08-18T23:04:38;10.10;;;9.30;;
10142;SDS011;5112;54.088;13.446;2022-08-18T23:14:41;10.00;;;9.10;;
10142;SDS011;5112;54.088;13.446;2022-08-18T23:24:45;11.30;;;10.30;;
10142;SDS011;5112;54.088;13.446;2022-08-18T23:34:49;9.90;;;9.00;;
10142;SDS011;5112;54.088;13.446;2022-08-18T23:44:50;10.07;;;9.07;;
10142;SDS011;5112;54.088;13.446;2022-08-18T23:54:53;9.90;;;9.10;;
